Time;durP1;ratioP1;P1;durP2;ratioP2;P2;SDS_P1;SDS_P2;PMS_P1;PMS_P2;Temp;Humidity;BMP_temperature;BMP_pressure;BME280_temperature;BME280_humidity;BME280_pressure;Samples;Min_cycle;Max_cycle;Signal;HPM_P1;HPM_P2
2022/03/09 00:01:45;;;;;;;35.13;25.83;;;3.50;1.00;;;;;;6296287;28;20228;-57
2022/03/09 00:04:48;;;;;;;35.73;24.43;;;3.30;1.00;;;;;;6300454;28;20236;-56
2022/03/09 00:07:51;;;;;;;39.07;25.40;;;3.30;1.00;;;;;;6305491;28;20245;-55
2022/03/09 00:10:59;;;;;;;34.80;24.03;;;3.20;1.00;;;;;;6306167;28;20725;-57
2022/03/09 00:14:02;;;;;;;32.87;23.90;;;3.20;1.00;;;;;;6300476;28;20327;-55
2022/03/09 00:17:05;;;;;;;33.90;25.20;;;3.30;1.00;;;;;;6293710;28;20233;-57
2022/03/09 00:20:09;;;;;;;36.53;25.80;;;3.20;1.00;;;;;;6307026;28;20237;-55
2022/03/09 00:23:12;;;;;;;36.87;26.23;;;3.20;1.00;;;;;;6306990;28;20248;-56
2022/03/09 00:26:16;;;;;;;43.00;28.53;;;3.30;1.00;;;;;;6304452;28;20255;-57
2022/03/09 00:29:19;;;;;;;40.80;26.20;;;2.90;1.00;;;;;;6309573;28;20326;-55
2022/03/09 00:32:22;;;;;;;39.20;27.60;;;3.10;1.00;;;;;;6302602;28;20377;-57
2022/03/09 00:35:24;;;;;;;39.80;27.03;;;3.20;1.00;;;;;;6307254;28;20235;-55
2022/03/09 00:38:27;;;;;;;51.23;31.33;;;2.90;1.00;;;;;;6308502;28;20721;-58
2022/03/09 00:41:32;;;;;;;54.60;32.23;;;3.10;1.00;;;;;;6298652;28;20332;-55
2022/03/09 00:44:34;;;;;;;52.67;33.40;;;3.20;1.00;;;;;;6298673;28;20269;-55
2022/03/09 00:47:37;;;;;;;48.53;32.83;;;3.20;1.00;;;;;;6308255;28;20739;-55
2022/03/09 00:50:40;;;;;;;50.03;32.80;;;2.90;1.00;;;;;;6303498;28;20247;-58
2022/03/09 00:53:43;;;;;;;50.77;30.73;;;2.90;1.00;;;;;;6299007;28;20239;-56
2022/03/09 00:56:47;;;;;;;51.53;31.97;;;2.90;1.00;;;;;;6307279;28;20353;-57
2022/03/09 00:59:50;;;;;;;45.60;30.57;;;2.70;1.00;;;;;;6307254;28;20233;-55
2022/03/09 01:02:53;;;;;;;47.07;31.33;;;3.00;1.00;;;;;;6301836;28;20244;-57
2022/03/09 01:05:56;;;;;;;43.07;29.07;;;2.80;1.00;;;;;;6307075;28;20232;-56
2022/03/09 01:08:59;;;;;;;45.37;30.37;;;2.80;1.00;;;;;;6295630;28;20631;-57
2022/03/09 01:12:04;;;;;;;43.63;27.20;;;2.80;1.00;;;;;;6302122;28;20256;-56
2022/03/09 01:15:08;;;;;;;34.47;25.57;;;3.00;1.00;;;;;;6299292;28;20264;-57
2022/03/09 01:18:12;;;;;;;38.43;26.23;;;2.60;1.00;;;;;;6307345;28;20243;-55
2022/03/09 01:21:15;;;;;;;34.50;25.13;;;2.90;1.00;;;;;;6305483;28;20312;-57
2022/03/09 01:24:20;;;;;;;39.00;27.63;;;2.80;1.00;;;;;;6307047;28;20778;-56
2022/03/09 01:27:24;;;;;;;36.87;26.33;;;2.60;1.00;;;;;;6301787;28;20228;-56
2022/03/09 01:30:27;;;;;;;36.10;25.80;;;2.70;1.00;;;;;;6295346;28;20312;-57
2022/03/09 01:33:30;;;;;;;35.77;26.67;;;2.90;1.00;;;;;;6290106;28;20446;-56
2022/03/09 01:36:34;;;;;;;32.93;25.53;;;2.70;1.00;;;;;;6298070;28;20518;-57
2022/03/09 01:39:37;;;;;;;35.97;27.40;;;2.70;1.00;;;;;;6304446;28;20748;-57
2022/03/09 01:42:41;;;;;;;36.23;25.47;;;2.80;1.00;;;;;;6297784;28;20309;-57
2022/03/09 01:45:44;;;;;;;33.93;25.43;;;2.70;1.00;;;;;;6303980;28;20742;-56
2022/03/09 01:48:47;;;;;;;32.77;24.67;;;2.70;1.00;;;;;;6308149;28;20258;-55
2022/03/09 01:51:53;;;;;;;34.97;24.87;;;2.80;1.00;;;;;;6302532;28;21736;-57
2022/03/09 01:54:56;;;;;;;36.07;26.10;;;2.50;1.00;;;;;;6307422;28;20268;-57
2022/03/09 01:58:00;;;;;;;32.07;24.73;;;2.80;1.00;;;;;;6299966;28;20307;-56
2022/03/09 02:01:03;;;;;;;34.80;24.57;;;2.60;1.00;;;;;;6295238;28;20670;-56
2022/03/09 02:04:06;;;;;;;32.80;25.20;;;2.50;1.00;;;;;;6308003;28;20244;-55
2022/03/09 02:07:09;;;;;;;35.70;26.47;;;2.50;1.00;;;;;;6306682;28;20624;-56
2022/03/09 02:10:11;;;;;;;34.17;25.20;;;2.60;1.00;;;;;;6302967;28;20298;-57
2022/03/09 02:13:16;;;;;;;37.87;26.60;;;2.40;1.00;;;;;;6307650;28;20231;-55
2022/03/09 02:16:18;;;;;;;33.13;24.13;;;2.60;1.00;;;;;;6311040;28;20698;-55
2022/03/09 02:19:21;;;;;;;33.50;25.07;;;2.40;1.00;;;;;;6306553;28;20482;-55
2022/03/09 02:22:31;;;;;;;32.57;25.37;;;2.30;1.00;;;;;;6304547;28;20282;-56
2022/03/09 02:25:34;;;;;;;36.90;25.83;;;2.50;1.00;;;;;;6307880;28;20334;-56
2022/03/09 02:28:40;;;;;;;33.53;26.00;;;2.40;1.00;;;;;;6309046;28;20236;-57
2022/03/09 02:31:42;;;;;;;33.97;24.77;;;2.30;1.00;;;;;;6309846;28;20707;-58
2022/03/09 02:34:45;;;;;;;33.00;25.83;;;2.60;1.00;;;;;;6310250;28;20317;-57
2022/03/09 02:37:49;;;;;;;33.90;25.90;;;2.10;1.00;;;;;;6312570;28;20431;-57
2022/03/09 02:40:52;;;;;;;37.87;25.80;;;2.10;1.00;;;;;;6305215;28;20343;-56
2022/03/09 02:43:55;;;;;;;42.97;26.97;;;2.40;1.00;;;;;;6303178;28;20685;-57
2022/03/09 02:46:59;;;;;;;36.80;26.37;;;2.50;1.00;;;;;;6311164;28;20240;-57
2022/03/09 02:50:01;;;;;;;35.97;25.17;;;2.20;1.00;;;;;;6302841;28;20668;-55
2022/03/09 02:53:05;;;;;;;33.07;24.67;;;2.30;1.00;;;;;;6308130;28;20784;-55
2022/03/09 02:56:08;;;;;;;35.07;26.10;;;2.10;1.00;;;;;;6314241;28;20717;-60
2022/03/09 02:59:12;;;;;;;34.00;26.37;;;2.40;1.00;;;;;;6305131;28;20319;-58
2022/03/09 03:02:15;;;;;;;39.17;26.80;;;2.30;1.00;;;;;;6311274;28;20325;-56
2022/03/09 03:05:18;;;;;;;34.97;25.50;;;2.20;1.00;;;;;;6312108;28;20314;-58
2022/03/09 03:08:22;;;;;;;33.63;25.70;;;2.30;1.00;;;;;;6304530;28;20300;-56
2022/03/09 03:11:25;;;;;;;39.40;25.60;;;2.20;1.00;;;;;;6305455;28;20224;-56
2022/03/09 03:14:28;;;;;;;32.43;24.87;;;2.30;1.00;;;;;;6312035;28;20382;-56
2022/03/09 03:17:31;;;;;;;36.17;25.37;;;2.10;1.00;;;;;;6311409;28;20237;-57
2022/03/09 03:20:34;;;;;;;34.17;24.73;;;1.90;1.00;;;;;;6296590;28;20285;-58
2022/03/09 03:23:38;;;;;;;35.43;25.60;;;1.80;1.00;;;;;;6312159;28;20248;-55
2022/03/09 03:26:41;;;;;;;33.87;23.93;;;2.00;1.00;;;;;;6308790;28;20374;-57
2022/03/09 03:29:43;;;;;;;35.37;25.50;;;2.10;1.00;;;;;;6309698;28;20278;-56
2022/03/09 03:32:47;;;;;;;33.57;25.67;;;2.10;1.00;;;;;;6306090;28;20316;-56
2022/03/09 03:35:50;;;;;;;34.17;24.33;;;2.10;1.00;;;;;;6304697;28;20279;-56
2022/03/09 03:38:54;;;;;;;35.07;25.07;;;2.00;1.00;;;;;;6307651;28;20391;-55
2022/03/09 03:41:57;;;;;;;29.27;22.93;;;2.00;1.00;;;;;;6309480;28;20367;-55
2022/03/09 03:44:59;;;;;;;32.73;22.53;;;2.00;1.00;;;;;;6288491;28;20316;-55
2022/03/09 03:48:03;;;;;;;30.00;23.63;;;2.10;1.00;;;;;;6303665;28;20638;-56
2022/03/09 03:51:06;;;;;;;30.57;22.77;;;2.10;1.00;;;;;;6293442;28;20544;-56
2022/03/09 03:54:10;;;;;;;26.97;21.83;;;1.80;1.00;;;;;;6308439;28;20244;-56
2022/03/09 03:57:13;;;;;;;30.13;21.70;;;1.80;1.00;;;;;;6309252;28;20361;-55
2022/03/09 04:00:17;;;;;;;28.87;22.17;;;1.80;1.00;;;;;;6307392;28;20324;-55
2022/03/09 04:03:19;;;;;;;32.33;22.33;;;1.90;1.00;;;;;;6298934;28;20248;-55
2022/03/09 04:06:23;;;;;;;31.23;22.13;;;2.00;1.00;;;;;;6310274;28;20705;-55
2022/03/09 04:09:27;;;;;;;29.97;22.67;;;1.90;1.00;;;;;;6310504;28;20263;-55
2022/03/09 04:12:30;;;;;;;33.70;23.63;;;1.60;1.00;;;;;;6300352;28;20740;-57
2022/03/09 04:15:32;;;;;;;27.27;22.53;;;1.60;1.00;;;;;;6305778;28;20256;-57
2022/03/09 04:18:39;;;;;;;33.80;24.27;;;1.70;1.00;;;;;;6312148;28;20244;-56
2022/03/09 04:21:42;;;;;;;36.23;25.17;;;1.70;1.00;;;;;;6297422;28;20321;-54
2022/03/09 04:24:46;;;;;;;28.73;23.73;;;1.70;1.00;;;;;;6309514;28;20236;-56
2022/03/09 04:27:48;;;;;;;29.20;23.10;;;1.80;1.00;;;;;;6312182;28;20369;-56
2022/03/09 04:30:51;;;;;;;31.17;22.73;;;1.60;1.00;;;;;;6303172;28;20332;-57
2022/03/09 04:33:54;;;;;;;32.43;24.77;;;1.70;1.00;;;;;;6286549;28;20327;-56
2022/03/09 04:36:57;;;;;;;28.87;23.47;;;1.40;1.00;;;;;;6303859;28;20245;-55
2022/03/09 04:40:01;;;;;;;31.17;24.83;;;1.60;1.00;;;;;;6308214;28;20610;-56
2022/03/09 04:43:04;;;;;;;31.53;23.10;;;1.50;1.00;;;;;;6297743;28;20674;-56
2022/03/09 04:46:07;;;;;;;31.90;23.90;;;1.70;1.00;;;;;;6307134;28;20536;-55
2022/03/09 04:49:10;;;;;;;31.43;22.43;;;1.60;1.00;;;;;;6304839;28;20489;-57
2022/03/09 04:52:13;;;;;;;33.67;23.83;;;1.60;1.00;;;;;;6298526;28;20258;-56
2022/03/09 04:55:17;;;;;;;31.93;24.13;;;1.30;1.00;;;;;;6306161;28;20260;-56
2022/03/09 04:58:20;;;;;;;28.13;22.20;;;1.70;1.00;;;;;;6308294;28;20228;-57
2022/03/09 05:01:23;;;;;;;33.10;25.23;;;1.50;1.00;;;;;;6303888;28;20702;-57
2022/03/09 05:04:26;;;;;;;31.07;23.63;;;1.30;1.00;;;;;;6292891;28;20285;-54
2022/03/09 05:07:29;;;;;;;32.93;23.70;;;1.50;1.00;;;;;;6300178;28;20236;-55
2022/03/09 05:10:33;;;;;;;30.30;22.77;;;1.50;1.00;;;;;;6303522;28;20244;-57
2022/03/09 05:13:36;;;;;;;30.27;21.53;;;1.50;1.00;;;;;;6303899;28;20295;-55
2022/03/09 05:16:39;;;;;;;28.27;21.50;;;1.20;1.00;;;;;;6297125;28;20240;-56
2022/03/09 05:19:42;;;;;;;29.03;22.13;;;1.30;1.00;;;;;;6305584;28;20802;-56
2022/03/09 05:22:45;;;;;;;27.63;20.67;;;1.50;1.00;;;;;;6298988;28;20267;-58
2022/03/09 05:25:49;;;;;;;30.47;20.73;;;1.50;1.00;;;;;;6306826;28;20794;-55
2022/03/09 05:28:53;;;;;;;24.43;20.33;;;1.20;1.00;;;;;;6307165;28;20480;-57
2022/03/09 05:31:57;;;;;;;25.37;18.80;;;1.60;1.00;;;;;;6298461;28;20604;-56
2022/03/09 05:35:00;;;;;;;23.90;18.57;;;1.50;1.00;;;;;;6304900;28;20243;-57
2022/03/09 05:38:02;;;;;;;24.37;19.67;;;1.50;1.00;;;;;;6300227;28;20270;-57
2022/03/09 05:41:07;;;;;;;24.53;19.70;;;1.30;1.00;;;;;;6306934;28;20429;-57
2022/03/09 05:44:09;;;;;;;22.83;17.87;;;1.60;1.00;;;;;;6305882;28;20248;-57
2022/03/09 05:47:12;;;;;;;21.80;17.23;;;1.40;1.00;;;;;;6313942;28;20239;-57
2022/03/09 05:50:18;;;;;;;22.73;17.37;;;1.30;1.00;;;;;;6305823;28;20240;-56
2022/03/09 05:53:21;;;;;;;26.83;18.50;;;1.40;1.00;;;;;;6314672;28;20618;-57
2022/03/09 05:56:25;;;;;;;23.03;17.07;;;1.60;1.00;;;;;;6312586;28;20233;-57
2022/03/09 05:59:28;;;;;;;19.20;17.10;;;1.30;1.00;;;;;;6315380;28;20331;-57
2022/03/09 06:02:30;;;;;;;19.77;16.33;;;1.70;1.00;;;;;;6307273;28;20627;-57
2022/03/09 06:05:33;;;;;;;18.50;16.47;;;1.70;1.00;;;;;;6313646;28;20625;-55
2022/03/09 06:08:36;;;;;;;18.80;16.30;;;1.60;1.00;;;;;;6309254;28;20232;-57
2022/03/09 06:11:43;;;;;;;17.17;15.47;;;1.50;1.00;;;;;;6303860;27;20382;-58
2022/03/09 06:14:46;;;;;;;18.50;16.47;;;1.60;1.00;;;;;;6313675;28;20232;-57
2022/03/09 06:17:50;;;;;;;17.37;15.47;;;1.60;1.00;;;;;;6309420;28;20312;-58
2022/03/09 06:20:53;;;;;;;18.80;15.67;;;1.70;1.00;;;;;;6307791;28;20299;-57
2022/03/09 06:23:56;;;;;;;17.20;14.87;;;1.80;1.00;;;;;;6313142;28;20232;-56
2022/03/09 06:27:00;;;;;;;17.33;14.50;;;2.10;1.00;;;;;;6310842;28;20482;-56
2022/03/09 06:30:06;;;;;;;15.33;13.73;;;1.90;1.00;;;;;;6312691;28;20797;-57
2022/03/09 06:33:11;;;;;;;19.47;14.23;;;2.30;1.00;;;;;;6303568;28;20221;-57
2022/03/09 06:36:13;;;;;;;16.30;14.60;;;2.00;1.00;;;;;;6307166;28;20331;-56
2022/03/09 06:39:16;;;;;;;17.43;14.83;;;2.40;1.00;;;;;;6311319;28;20336;-57
2022/03/09 06:42:20;;;;;;;15.73;14.03;;;2.60;1.00;;;;;;6305184;28;20237;-56
2022/03/09 06:45:24;;;;;;;19.20;14.30;;;2.80;1.00;;;;;;6306283;28;20259;-58
2022/03/09 06:48:27;;;;;;;17.80;14.00;;;3.50;1.00;;;;;;6313121;28;20248;-55
2022/03/09 06:51:30;;;;;;;18.30;13.13;;;3.40;1.00;;;;;;6307569;28;20751;-57
2022/03/09 06:54:33;;;;;;;15.57;13.63;;;3.80;1.00;;;;;;6308502;28;20241;-57
2022/03/09 06:57:37;;;;;;;14.27;12.53;;;3.80;1.00;;;;;;6310857;28;20331;-57
2022/03/09 07:00:40;;;;;;;15.27;12.97;;;4.00;1.00;;;;;;6307443;28;20282;-57
2022/03/09 07:03:43;;;;;;;15.07;12.53;;;4.60;1.00;;;;;;6311298;28;20248;-58
2022/03/09 07:06:47;;;;;;;13.60;12.17;;;4.90;1.00;;;;;;6308672;28;20232;-57
2022/03/09 07:09:50;;;;;;;13.87;12.47;;;5.20;1.00;;;;;;6302471;28;20244;-57
2022/03/09 07:12:54;;;;;;;13.33;12.10;;;5.20;1.00;;;;;;6301964;28;20356;-57
2022/03/09 07:15:57;;;;;;;12.73;11.53;;;5.50;1.00;;;;;;6301625;28;20235;-57
2022/03/09 07:19:00;;;;;;;15.37;12.30;;;5.20;1.00;;;;;;6309084;28;20604;-55
2022/03/09 07:22:03;;;;;;;13.17;11.43;;;5.30;1.00;;;;;;6295103;28;20653;-56
2022/03/09 07:25:06;;;;;;;16.77;11.63;;;5.40;1.00;;;;;;6307380;28;20580;-59
2022/03/09 07:28:11;;;;;;;15.30;12.10;;;5.40;1.00;;;;;;6308944;28;20228;-58
2022/03/09 07:31:14;;;;;;;14.77;11.70;;;5.30;1.00;;;;;;6306101;28;20330;-58
2022/03/09 07:34:17;;;;;;;13.73;12.33;;;5.40;1.00;;;;;;6303540;28;20319;-57
2022/03/09 07:37:19;;;;;;;12.97;11.80;;;5.40;1.00;;;;;;6310187;28;20291;-60
2022/03/09 07:40:22;;;;;;;13.37;12.03;;;5.50;1.00;;;;;;6308115;28;20231;-57
2022/03/09 07:43:27;;;;;;;19.13;14.43;;;5.30;1.00;;;;;;6295021;28;20284;-56
2022/03/09 07:46:29;;;;;;;14.93;12.80;;;5.40;1.00;;;;;;6307847;28;20227;-56
2022/03/09 07:49:33;;;;;;;14.77;13.27;;;5.50;1.00;;;;;;6307666;28;20242;-56
2022/03/09 07:52:37;;;;;;;19.03;13.00;;;5.60;1.00;;;;;;6305726;28;20233;-55
2022/03/09 07:55:40;;;;;;;13.90;12.50;;;5.60;1.00;;;;;;6309574;28;20232;-56
2022/03/09 07:58:44;;;;;;;15.57;11.43;;;5.80;1.00;;;;;;6302008;28;20379;-57
2022/03/09 08:01:52;;;;;;;13.00;11.70;;;6.00;1.00;;;;;;6304498;28;20776;-58
2022/03/09 08:04:56;;;;;;;13.83;12.40;;;5.80;1.00;;;;;;6307414;28;20240;-56
2022/03/09 08:07:59;;;;;;;12.57;10.70;;;6.30;1.00;;;;;;6308017;28;20633;-56
2022/03/09 08:11:01;;;;;;;11.40;9.80;;;6.10;1.00;;;;;;6303867;28;20305;-56
2022/03/09 08:14:06;;;;;;;10.30;9.40;;;6.20;1.00;;;;;;6310610;28;20651;-56
2022/03/09 08:17:08;;;;;;;11.53;9.77;;;6.50;1.00;;;;;;6289624;28;20390;-58
2022/03/09 08:20:12;;;;;;;13.80;10.37;;;6.30;1.00;;;;;;6307103;28;20279;-57
2022/03/09 08:23:15;;;;;;;14.70;10.67;;;6.60;1.00;;;;;;6308917;28;20522;-56
2022/03/09 08:26:18;;;;;;;15.13;10.90;;;6.80;1.00;;;;;;6308439;28;20330;-56
2022/03/09 08:29:22;;;;;;;15.73;11.30;;;6.80;1.00;;;;;;6302888;28;20314;-57
2022/03/09 08:32:25;;;;;;;14.37;11.57;;;7.00;1.00;;;;;;6303916;28;20240;-57
2022/03/09 08:35:28;;;;;;;17.67;12.27;;;7.30;1.00;;;;;;6296723;28;20294;-56
2022/03/09 08:38:30;;;;;;;17.80;11.70;;;7.40;1.00;;;;;;6308570;28;20275;-57
2022/03/09 08:41:33;;;;;;;21.67;11.93;;;7.40;1.00;;;;;;6297429;28;20681;-56
2022/03/09 08:44:43;;;;;;;16.50;12.17;;;7.80;1.00;;;;;;6298045;28;20244;-57
2022/03/09 08:47:46;;;;;;;16.07;12.47;;;7.60;1.00;;;;;;6307741;28;20428;-58
2022/03/09 08:50:49;;;;;;;16.17;13.07;;;7.80;1.00;;;;;;6303289;28;20293;-58
2022/03/09 08:53:54;;;;;;;13.47;11.13;;;7.90;1.00;;;;;;6306991;28;20248;-57
2022/03/09 08:56:57;;;;;;;16.97;11.57;;;8.10;1.00;;;;;;6307332;28;20323;-60
2022/03/09 09:00:03;;;;;;;13.90;11.10;;;8.20;1.00;;;;;;6307637;28;20233;-58
2022/03/09 09:03:06;;;;;;;16.97;10.93;;;8.40;1.00;;;;;;6297857;28;20454;-60
2022/03/09 09:06:09;;;;;;;12.53;9.93;;;8.50;1.00;;;;;;6306533;28;20236;-58
2022/03/09 09:09:14;;;;;;;10.90;9.90;;;8.60;1.00;;;;;;6302647;28;20237;-58
2022/03/09 09:12:17;;;;;;;15.47;10.27;;;8.60;1.00;;;;;;6297662;28;20252;-57
2022/03/09 09:15:24;;;;;;;10.73;9.67;;;8.80;1.00;;;;;;6305313;28;20761;-58
2022/03/09 09:18:26;;;;;;;11.77;10.57;;;8.90;1.00;;;;;;6302224;28;20254;-57
2022/03/09 09:21:30;;;;;;;12.77;10.87;;;9.00;1.00;;;;;;6303370;28;20240;-57
2022/03/09 09:24:32;;;;;;;14.40;10.77;;;9.10;1.00;;;;;;6303834;28;20287;-58
2022/03/09 09:27:35;;;;;;;13.07;10.60;;;9.00;1.00;;;;;;6306877;28;20260;-59
2022/03/09 09:30:50;;;;;;;11.43;9.93;;;9.20;1.00;;;;;;6303160;28;20618;-57
2022/03/09 09:33:53;;;;;;;11.67;10.47;;;9.20;1.00;;;;;;6299567;28;20261;-58
2022/03/09 09:36:56;;;;;;;12.53;10.30;;;9.40;1.00;;;;;;6305217;28;20254;-59
2022/03/09 09:39:59;;;;;;;12.60;9.80;;;9.50;1.00;;;;;;6294894;28;20305;-58
2022/03/09 09:43:07;;;;;;;13.50;10.40;;;9.60;1.00;;;;;;6298976;28;20272;-57
2022/03/09 09:46:15;;;;;;;10.70;9.57;;;9.60;1.00;;;;;;6305052;28;20232;-57
2022/03/09 09:49:23;;;;;;;14.23;10.07;;;9.80;1.00;;;;;;6298434;28;20705;-57
2022/03/09 09:52:27;;;;;;;13.67;10.37;;;10.00;1.00;;;;;;6298676;28;20270;-58
2022/03/09 09:55:30;;;;;;;13.10;10.20;;;10.10;1.00;;;;;;6304696;28;20825;-59
2022/03/09 09:58:33;;;;;;;15.07;9.43;;;10.20;1.00;;;;;;6304873;28;20315;-59
2022/03/09 10:01:37;;;;;;;12.00;10.10;;;10.40;1.00;;;;;;6300629;28;20300;-58
2022/03/09 10:04:40;;;;;;;13.13;10.40;;;10.50;1.00;;;;;;6298902;28;20462;-58
2022/03/09 10:08:08;;;;;;;15.57;10.40;;;10.60;1.00;;;;;;6300065;28;20224;-59
2022/03/09 10:11:11;;;;;;;13.33;10.00;;;10.60;1.00;;;;;;6301115;28;20225;-58
2022/03/09 10:14:15;;;;;;;14.70;10.40;;;10.80;1.00;;;;;;6308009;28;20786;-58
2022/03/09 10:17:21;;;;;;;17.00;11.60;;;10.90;1.00;;;;;;6305889;28;20744;-58
2022/03/09 10:20:30;;;;;;;12.53;10.67;;;10.90;1.00;;;;;;6305011;28;20251;-58
2022/03/09 10:23:50;;;;;;;16.20;10.23;;;11.10;1.00;;;;;;6308459;28;20477;-58
2022/03/09 10:26:53;;;;;;;10.97;8.57;;;11.10;1.00;;;;;;6308151;28;20233;-59
2022/03/09 10:29:56;;;;;;;9.30;8.40;;;11.20;1.00;;;;;;6305433;28;20445;-58
2022/03/09 10:33:02;;;;;;;11.43;10.10;;;11.30;1.00;;;;;;6309431;28;20229;-59
2022/03/09 10:36:05;;;;;;;11.87;9.03;;;11.30;1.00;;;;;;6307381;28;20291;-58
2022/03/09 10:39:16;;;;;;;9.77;8.27;;;11.40;1.00;;;;;;6311076;28;20466;-58
2022/03/09 10:42:24;;;;;;;9.80;8.80;;;11.50;1.00;;;;;;6310060;28;20229;-58
2022/03/09 10:45:27;;;;;;;10.87;8.37;;;11.50;1.00;;;;;;6297625;28;20876;-57
2022/03/09 10:48:50;;;;;;;10.37;8.87;;;11.60;1.00;;;;;;6311766;28;20634;-60
2022/03/09 10:51:53;;;;;;;8.87;7.97;;;11.80;1.00;;;;;;6300217;28;20311;-58
2022/03/09 10:55:30;;;;;;;9.03;8.23;;;12.00;1.00;;;;;;6309764;28;20514;-58
2022/03/09 10:58:39;;;;;;;8.47;7.63;;;12.10;1.00;;;;;;6304772;28;20236;-58
2022/03/09 11:01:43;;;;;;;8.23;7.43;;;12.30;1.00;;;;;;6300212;28;20316;-57
2022/03/09 11:05:08;;;;;;;7.93;7.17;;;12.30;1.00;;;;;;6308772;28;20237;-59
2022/03/09 11:08:10;;;;;;;7.87;7.17;;;12.20;1.00;;;;;;6307255;28;20373;-58
2022/03/09 11:11:14;;;;;;;8.93;8.13;;;12.30;1.00;;;;;;6295881;28;20237;-58
2022/03/09 11:14:19;;;;;;;8.27;7.60;;;12.40;1.00;;;;;;6310210;28;20245;-58
2022/03/09 11:17:23;;;;;;;8.23;7.53;;;12.40;1.00;;;;;;6308745;28;20394;-57
2022/03/09 11:20:27;;;;;;;8.80;7.97;;;12.40;1.00;;;;;;6307456;28;20818;-58
2022/03/09 11:23:31;;;;;;;8.43;7.23;;;12.30;1.00;;;;;;6296982;28;20287;-58
2022/03/09 11:26:36;;;;;;;7.90;7.10;;;12.40;1.00;;;;;;6308343;28;20386;-59
2022/03/09 11:29:41;;;;;;;7.37;6.67;;;12.40;1.00;;;;;;6306524;28;20868;-60
2022/03/09 11:32:44;;;;;;;7.60;6.90;;;12.50;1.00;;;;;;6305839;28;20293;-57
2022/03/09 11:35:49;;;;;;;7.63;7.00;;;12.50;1.00;;;;;;6295747;28;20247;-57
2022/03/09 11:38:53;;;;;;;7.80;7.20;;;12.60;1.00;;;;;;6309374;28;20262;-59
2022/03/09 11:42:34;;;;;;;8.33;7.37;;;12.70;1.00;;;;;;6308077;28;20467;-59
2022/03/09 11:45:37;;;;;;;9.20;7.00;;;12.90;1.00;;;;;;6302377;28;20233;-56
2022/03/09 11:48:52;;;;;;;7.80;7.20;;;13.00;1.00;;;;;;6308973;28;20626;-57
2022/03/09 11:52:08;;;;;;;8.57;7.67;;;12.90;1.00;;;;;;6297101;28;20330;-59
2022/03/09 11:55:18;;;;;;;7.87;7.27;;;13.10;1.00;;;;;;6302558;28;20278;-57
2022/03/09 11:58:21;;;;;;;7.30;6.70;;;13.00;1.00;;;;;;6308885;28;20370;-58
2022/03/09 12:01:24;;;;;;;7.57;6.97;;;13.10;1.00;;;;;;6305575;28;20239;-57
2022/03/09 12:04:48;;;;;;;7.37;6.87;;;13.10;1.00;;;;;;6308314;28;21053;-58
2022/03/09 12:07:52;;;;;;;7.37;6.67;;;13.10;1.00;;;;;;6286631;28;20753;-58
2022/03/09 12:10:56;;;;;;;7.73;7.03;;;13.20;1.00;;;;;;6299188;28;20264;-57
2022/03/09 12:13:59;;;;;;;7.30;6.70;;;13.10;1.00;;;;;;6301453;28;20801;-58
2022/03/09 12:17:02;;;;;;;6.87;6.37;;;13.20;1.00;;;;;;6296147;28;20611;-57
2022/03/09 12:20:18;;;;;;;9.07;6.73;;;13.10;1.00;;;;;;6291319;28;20854;-57
2022/03/09 12:23:22;;;;;;;11.37;6.50;;;13.30;1.00;;;;;;6296626;28;20318;-57
2022/03/09 12:26:40;;;;;;;7.37;6.37;;;13.20;1.00;;;;;;6283446;28;20367;-57
2022/03/09 12:29:43;;;;;;;8.83;6.53;;;13.30;1.00;;;;;;6284816;28;20328;-59
2022/03/09 12:32:51;;;;;;;6.53;5.93;;;13.50;1.00;;;;;;6295992;28;20685;-58
2022/03/09 12:36:03;;;;;;;7.97;7.17;;;13.60;1.00;;;;;;6304833;28;20236;-58
2022/03/09 12:39:28;;;;;;;8.67;7.63;;;13.70;1.00;;;;;;6295098;28;20597;-57
2022/03/09 12:42:31;;;;;;;7.83;7.13;;;13.80;1.00;;;;;;6298778;28;20267;-57
2022/03/09 12:45:50;;;;;;;7.17;6.67;;;13.80;1.00;;;;;;6296382;28;21435;-57
2022/03/09 12:49:01;;;;;;;8.87;7.10;;;13.70;1.00;;;;;;6297288;28;20315;-59
2022/03/09 12:52:08;;;;;;;7.07;6.60;;;13.60;1.00;;;;;;6289779;28;20225;-58
2022/03/09 12:55:12;;;;;;;8.77;7.33;;;13.60;1.00;;;;;;6304327;28;20327;-59
2022/03/09 12:58:22;;;;;;;7.63;7.03;;;13.60;1.00;;;;;;6289005;28;20374;-57
2022/03/09 13:01:24;;;;;;;6.77;6.37;;;13.60;1.00;;;;;;6297732;28;20393;-58
2022/03/09 13:04:27;;;;;;;6.83;6.40;;;13.60;1.00;;;;;;6300713;28;20334;-61
2022/03/09 13:07:30;;;;;;;6.27;5.87;;;13.50;1.00;;;;;;6284360;28;20268;-58
2022/03/09 13:10:41;;;;;;;7.93;7.33;;;13.60;1.00;;;;;;6296045;28;20232;-58
2022/03/09 13:13:45;;;;;;;7.23;6.63;;;13.60;1.00;;;;;;6286983;28;20328;-58
2022/03/09 13:17:01;;;;;;;10.00;7.33;;;13.70;1.00;;;;;;6302150;28;20319;-58
2022/03/09 13:20:05;;;;;;;8.10;7.37;;;13.70;1.00;;;;;;6301485;28;20244;-58
2022/03/09 13:23:26;;;;;;;7.87;7.27;;;13.60;1.00;;;;;;6298661;28;20239;-58
2022/03/09 13:26:40;;;;;;;7.87;7.17;;;13.70;1.00;;;;;;6299203;28;20225;-58
2022/03/09 13:29:45;;;;;;;6.93;6.43;;;13.70;1.00;;;;;;6291859;28;20657;-58
2022/03/09 13:32:48;;;;;;;7.50;7.00;;;13.70;1.00;;;;;;6283814;28;20767;-57
2022/03/09 13:35:53;;;;;;;7.57;6.93;;;13.70;1.00;;;;;;6290869;28;20355;-57
2022/03/09 13:38:57;;;;;;;8.27;7.57;;;13.70;1.00;;;;;;6299622;28;20319;-57
2022/03/09 13:42:21;;;;;;;7.67;7.10;;;13.80;1.00;;;;;;6295623;28;20225;-59
2022/03/09 13:45:29;;;;;;;8.43;7.67;;;13.80;1.00;;;;;;6298985;28;20795;-59
2022/03/09 13:48:31;;;;;;;8.07;7.43;;;13.80;1.00;;;;;;6298761;28;20313;-58
2022/03/09 13:51:35;;;;;;;9.43;8.00;;;13.90;1.00;;;;;;6303078;28;20254;-58
2022/03/09 13:54:45;;;;;;;8.73;8.03;;;13.80;1.00;;;;;;6301145;28;20382;-58
2022/03/09 13:58:02;;;;;;;7.93;7.17;;;13.80;1.00;;;;;;6294369;28;20815;-59
2022/03/09 14:01:09;;;;;;;8.67;7.93;;;13.80;1.00;;;;;;6292706;28;20225;-58
2022/03/09 14:04:12;;;;;;;8.27;7.57;;;13.80;1.00;;;;;;6307860;28;20240;-58
2022/03/09 14:07:15;;;;;;;8.77;7.87;;;13.80;1.00;;;;;;6306964;28;20561;-59
2022/03/09 14:10:24;;;;;;;8.57;7.40;;;13.80;1.00;;;;;;6299110;28;20237;-59
2022/03/09 14:13:29;;;;;;;7.23;6.47;;;13.70;1.00;;;;;;6308803;28;20411;-57
2022/03/09 14:16:34;;;;;;;6.90;6.50;;;13.60;1.00;;;;;;6306894;28;20307;-57
2022/03/09 14:19:37;;;;;;;6.83;6.23;;;13.60;1.00;;;;;;6308681;28;20251;-57
2022/03/09 14:22:42;;;;;;;7.33;6.57;;;13.60;1.00;;;;;;6310226;28;20315;-58
2022/03/09 14:25:45;;;;;;;8.40;6.80;;;13.50;1.00;;;;;;6307886;28;20241;-59
2022/03/09 14:28:49;;;;;;;7.70;7.00;;;13.50;1.00;;;;;;6309766;28;20241;-58
2022/03/09 14:31:52;;;;;;;7.57;7.00;;;13.40;1.00;;;;;;6301783;28;20237;-58
2022/03/09 14:34:55;;;;;;;7.20;6.70;;;13.40;1.00;;;;;;6300745;28;20627;-58
2022/03/09 14:37:58;;;;;;;6.83;6.33;;;13.50;1.00;;;;;;6308317;28;20236;-57
2022/03/09 14:41:01;;;;;;;7.40;6.70;;;13.50;1.00;;;;;;6307484;28;20794;-58
2022/03/09 14:44:07;;;;;;;10.23;6.97;;;13.40;1.00;;;;;;6300138;28;20244;-58
2022/03/09 14:47:09;;;;;;;7.67;7.13;;;13.40;1.00;;;;;;6295972;28;20240;-57
2022/03/09 14:50:13;;;;;;;7.83;7.13;;;13.30;1.00;;;;;;6308097;28;20827;-57
2022/03/09 14:53:16;;;;;;;8.27;7.47;;;13.30;1.00;;;;;;6309149;28;20593;-58
2022/03/09 14:56:19;;;;;;;8.00;7.07;;;13.30;1.00;;;;;;6309018;28;20319;-59
2022/03/09 14:59:27;;;;;;;8.27;7.00;;;13.30;1.00;;;;;;6309074;28;20384;-58
2022/03/09 15:02:30;;;;;;;6.47;5.97;;;13.20;1.00;;;;;;6296499;28;20310;-58
2022/03/09 15:05:33;;;;;;;6.93;6.43;;;13.10;1.00;;;;;;6303879;28;20239;-57
2022/03/09 15:08:37;;;;;;;7.07;6.57;;;13.10;1.00;;;;;;6305023;28;20807;-57
2022/03/09 15:11:40;;;;;;;7.70;7.07;;;13.00;1.00;;;;;;6295961;28;20257;-59
2022/03/09 15:14:44;;;;;;;7.47;6.77;;;12.90;1.00;;;;;;6311945;28;20436;-60
2022/03/09 15:17:47;;;;;;;7.87;7.17;;;12.80;1.00;;;;;;6308852;28;20278;-59
2022/03/09 15:20:50;;;;;;;7.30;6.70;;;12.70;1.00;;;;;;6306706;28;20247;-57
2022/03/09 15:23:53;;;;;;;8.60;7.67;;;12.60;1.00;;;;;;6303298;28;20550;-58
2022/03/09 15:26:56;;;;;;;7.40;6.80;;;12.40;1.00;;;;;;6308473;28;20365;-58
2022/03/09 15:30:00;;;;;;;8.27;7.30;;;12.20;1.00;;;;;;6300936;28;20748;-57
2022/03/09 15:33:03;;;;;;;7.47;6.87;;;12.10;1.00;;;;;;6295894;28;20233;-58
2022/03/09 15:36:06;;;;;;;7.60;7.00;;;12.00;1.00;;;;;;6308721;28;21103;-58
2022/03/09 15:39:09;;;;;;;7.27;6.67;;;11.90;1.00;;;;;;6301223;28;20798;-58
2022/03/09 15:42:12;;;;;;;6.90;6.40;;;11.80;1.00;;;;;;6303886;28;20269;-58
2022/03/09 15:45:16;;;;;;;6.87;6.40;;;11.70;1.00;;;;;;6300433;28;20827;-58
2022/03/09 15:48:19;;;;;;;10.10;7.07;;;11.50;1.00;;;;;;6300393;28;20356;-57
2022/03/09 15:51:28;;;;;;;10.37;7.53;;;11.40;1.00;;;;;;6305669;28;20774;-58
2022/03/09 15:54:30;;;;;;;7.87;7.27;;;11.30;1.00;;;;;;6309231;28;20290;-58
2022/03/09 15:57:33;;;;;;;11.03;8.30;;;11.10;1.00;;;;;;6305103;28;20393;-58
2022/03/09 16:00:39;;;;;;;8.80;7.90;;;11.10;1.00;;;;;;6299159;28;20260;-58
2022/03/09 16:03:42;;;;;;;9.00;7.47;;;11.00;1.00;;;;;;6308199;28;20245;-57
2022/03/09 16:06:45;;;;;;;9.27;7.83;;;10.90;1.00;;;;;;6306079;28;20235;-57